Time;durP1;ratioP1;P1;durP2;ratioP2;P2;SDS_P1;SDS_P2;PMS_P1;PMS_P2;Temp;Humidity;BMP_temperature;BMP_pressure;BME280_temperature;BME280_humidity;BME280_pressure;Samples;Min_cycle;Max_cycle;Signal;HPM_P1;HPM_P2
2023/06/21 00:01:31;;;;;;;8.70;8.00;;;;;;;;;;4920096;29;20432;-71
2023/06/21 00:04:00;;;;;;;12.20;7.33;;;;;;;;;;4920091;29;20420;-70
2023/06/21 00:06:28;;;;;;;21.23;8.30;;;;;;;;;;4920938;29;20464;-70
2023/06/21 00:08:55;;;;;;;11.17;7.60;;;;;;;;;;4919920;29;20455;-70
2023/06/21 00:11:21;;;;;;;9.33;7.30;;;;;;;;;;4920118;29;20477;-70
2023/06/21 00:13:47;;;;;;;9.20;7.60;;;;;;;;;;4920267;29;20471;-70
2023/06/21 00:16:14;;;;;;;7.97;7.37;;;;;;;;;;4920036;29;20802;-70
2023/06/21 00:18:40;;;;;;;8.17;6.97;;;;;;;;;;4920030;29;20413;-70
2023/06/21 00:21:06;;;;;;;10.13;8.27;;;;;;;;;;4919779;29;20436;-70
2023/06/21 00:23:32;;;;;;;7.57;7.00;;;;;;;;;;4920009;29;20424;-70
2023/06/21 00:25:58;;;;;;;13.13;7.40;;;;;;;;;;4919573;29;20932;-70
2023/06/21 00:28:24;;;;;;;13.63;7.03;;;;;;;;;;4919867;29;20480;-70
2023/06/21 00:30:50;;;;;;;14.50;7.57;;;;;;;;;;4919541;29;20864;-70
2023/06/21 00:33:16;;;;;;;11.33;7.63;;;;;;;;;;4919879;29;20417;-71
2023/06/21 00:35:42;;;;;;;9.90;7.80;;;;;;;;;;4919695;29;20421;-70
2023/06/21 00:38:12;;;;;;;8.27;7.30;;;;;;;;;;4919961;29;20436;-70
2023/06/21 00:40:38;;;;;;;7.23;6.50;;;;;;;;;;4919686;29;20429;-70
2023/06/21 00:43:05;;;;;;;13.47;7.37;;;;;;;;;;4919390;29;20424;-70
2023/06/21 00:45:38;;;;;;;15.90;8.70;;;;;;;;;;4919567;29;20471;-70
2023/06/21 00:48:04;;;;;;;8.27;6.97;;;;;;;;;;4919516;29;20554;-70
2023/06/21 00:50:29;;;;;;;8.63;7.60;;;;;;;;;;4919384;29;20505;-70
2023/06/21 00:52:56;;;;;;;8.77;7.73;;;;;;;;;;4919496;29;20423;-70
2023/06/21 00:55:23;;;;;;;9.10;7.80;;;;;;;;;;4919116;29;20432;-70
2023/06/21 00:57:49;;;;;;;16.53;7.67;;;;;;;;;;4919378;29;20421;-70
2023/06/21 01:00:20;;;;;;;11.03;7.60;;;;;;;;;;4918201;29;20768;-70
2023/06/21 01:02:47;;;;;;;8.67;7.97;;;;;;;;;;4918918;29;21001;-70
2023/06/21 01:05:15;;;;;;;10.00;8.17;;;;;;;;;;4919211;29;20523;-71
2023/06/21 01:08:05;;;;;;;9.13;7.53;;;;;;;;;;4919140;29;20421;-70
2023/06/21 01:10:44;;;;;;;16.23;8.20;;;;;;;;;;4919116;29;20471;-70
2023/06/21 01:13:18;;;;;;;8.70;7.27;;;;;;;;;;4918727;29;20491;-70
2023/06/21 01:15:45;;;;;;;9.83;7.20;;;;;;;;;;4919815;29;20405;-70
2023/06/21 01:18:14;;;;;;;8.67;7.47;;;;;;;;;;4918667;29;20429;-70
2023/06/21 01:20:41;;;;;;;10.47;7.37;;;;;;;;;;4918641;29;20428;-70
2023/06/21 01:23:13;;;;;;;17.83;7.67;;;;;;;;;;4918957;29;20425;-70
2023/06/21 01:25:42;;;;;;;7.53;6.87;;;;;;;;;;4918564;29;20507;-70
2023/06/21 01:28:23;;;;;;;8.83;6.43;;;;;;;;;;4918593;29;20638;-70
2023/06/21 01:30:50;;;;;;;7.53;6.77;;;;;;;;;;4918503;29;20484;-70
2023/06/21 01:33:19;;;;;;;9.77;7.67;;;;;;;;;;4918724;29;20493;-70
2023/06/21 01:35:45;;;;;;;7.50;6.87;;;;;;;;;;4932982;29;20444;-70
2023/06/21 01:38:11;;;;;;;8.03;7.23;;;;;;;;;;4918821;29;20942;-70
2023/06/21 01:40:37;;;;;;;16.80;8.97;;;;;;;;;;4918490;29;20424;-70
2023/06/21 01:43:03;;;;;;;10.20;7.80;;;;;;;;;;4918320;29;20924;-70
2023/06/21 01:45:29;;;;;;;13.73;7.77;;;;;;;;;;4918536;29;20605;-70
2023/06/21 01:47:56;;;;;;;11.07;7.50;;;;;;;;;;4918383;29;20483;-70
2023/06/21 01:50:22;;;;;;;12.70;8.00;;;;;;;;;;4918035;29;20480;-70
2023/06/21 01:52:49;;;;;;;15.20;7.00;;;;;;;;;;4918142;29;20933;-71
2023/06/21 01:55:15;;;;;;;11.07;7.63;;;;;;;;;;4918107;29;20428;-70
2023/06/21 01:57:42;;;;;;;8.93;7.33;;;;;;;;;;4918275;29;20512;-70
2023/06/21 02:00:17;;;;;;;14.60;7.43;;;;;;;;;;4917813;29;20431;-70
2023/06/21 02:02:49;;;;;;;17.80;7.17;;;;;;;;;;4918166;29;20439;-70
2023/06/21 02:05:16;;;;;;;8.33;7.40;;;;;;;;;;4917910;29;20424;-70
2023/06/21 02:07:45;;;;;;;7.87;7.00;;;;;;;;;;4917879;29;20436;-70
2023/06/21 02:10:30;;;;;;;13.70;7.53;;;;;;;;;;4917937;29;20571;-70
2023/06/21 02:12:56;;;;;;;9.10;7.70;;;;;;;;;;4918000;29;20507;-70
2023/06/21 02:15:23;;;;;;;11.03;7.90;;;;;;;;;;4917579;29;20524;-70
2023/06/21 02:17:52;;;;;;;12.03;7.37;;;;;;;;;;4917955;29;20512;-70
2023/06/21 02:20:21;;;;;;;15.80;8.10;;;;;;;;;;4917908;29;20480;-70
2023/06/21 02:22:48;;;;;;;9.43;8.10;;;;;;;;;;4917872;29;20424;-69
2023/06/21 02:25:15;;;;;;;8.93;7.93;;;;;;;;;;4932069;29;20532;-70
2023/06/21 02:27:41;;;;;;;13.77;9.73;;;;;;;;;;4917524;29;20417;-70
2023/06/21 02:30:08;;;;;;;10.33;8.60;;;;;;;;;;4917509;29;20472;-70
2023/06/21 02:32:34;;;;;;;11.10;7.80;;;;;;;;;;4917655;29;20421;-70
2023/06/21 02:35:00;;;;;;;12.83;8.30;;;;;;;;;;4917479;29;20417;-70
2023/06/21 02:37:29;;;;;;;11.07;8.07;;;;;;;;;;4917194;29;20947;-70
2023/06/21 02:39:56;;;;;;;7.80;6.77;;;;;;;;;;4917377;29;20476;-70
2023/06/21 02:42:22;;;;;;;8.50;7.70;;;;;;;;;;4917233;29;20871;-70
2023/06/21 02:44:48;;;;;;;16.60;8.80;;;;;;;;;;4917288;29;20423;-70
2023/06/21 02:47:14;;;;;;;14.30;8.50;;;;;;;;;;4917202;29;20433;-70
2023/06/21 02:49:39;;;;;;;20.23;7.73;;;;;;;;;;4917104;29;20542;-71
2023/06/21 02:52:06;;;;;;;8.13;7.43;;;;;;;;;;4916986;29;20540;-70
2023/06/21 02:54:32;;;;;;;10.87;7.93;;;;;;;;;;4917394;29;20424;-70
2023/06/21 02:56:58;;;;;;;15.43;8.37;;;;;;;;;;4917069;29;20905;-70
2023/06/21 02:59:28;;;;;;;10.57;7.40;;;;;;;;;;4931670;29;20428;-70
2023/06/21 03:01:54;;;;;;;8.97;7.17;;;;;;;;;;4917016;29;20519;-70
2023/06/21 03:04:20;;;;;;;9.10;8.40;;;;;;;;;;4916920;29;20464;-70
2023/06/21 03:06:46;;;;;;;15.53;6.93;;;;;;;;;;4917070;29;20471;-70
2023/06/21 03:09:12;;;;;;;14.50;7.30;;;;;;;;;;4917219;29;20428;-70
2023/06/21 03:11:38;;;;;;;7.77;6.10;;;;;;;;;;4917135;29;20485;-70
2023/06/21 03:14:04;;;;;;;5.80;5.50;;;;;;;;;;4917044;29;20181;-70
2023/06/21 03:16:30;;;;;;;10.73;8.60;;;;;;;;;;4916832;29;20946;-70
2023/06/21 03:18:56;;;;;;;17.20;7.90;;;;;;;;;;4917170;29;20445;-70
2023/06/21 03:21:22;;;;;;;7.27;6.67;;;;;;;;;;4917132;29;20433;-70
2023/06/21 03:23:49;;;;;;;8.43;7.70;;;;;;;;;;4920203;29;20431;-70
2023/06/21 03:26:15;;;;;;;14.77;7.90;;;;;;;;;;4920940;29;20424;-70
2023/06/21 03:28:43;;;;;;;8.17;7.40;;;;;;;;;;4920882;29;20780;-71
2023/06/21 03:31:09;;;;;;;9.70;8.70;;;;;;;;;;4920345;29;20984;-70
2023/06/21 03:33:35;;;;;;;10.47;8.07;;;;;;;;;;4920981;29;20417;-70
2023/06/21 03:36:03;;;;;;;16.93;9.17;;;;;;;;;;4920459;29;20459;-70
2023/06/21 03:38:29;;;;;;;17.43;8.07;;;;;;;;;;4920878;29;20420;-70
2023/06/21 03:40:55;;;;;;;8.83;7.77;;;;;;;;;;4920661;29;20527;-70
2023/06/21 03:43:21;;;;;;;10.47;8.90;;;;;;;;;;4920984;29;20961;-70
2023/06/21 03:45:47;;;;;;;10.43;8.97;;;;;;;;;;4920610;29;20428;-70
2023/06/21 03:48:13;;;;;;;10.10;9.10;;;;;;;;;;4921127;29;20426;-70
2023/06/21 03:50:40;;;;;;;13.83;8.90;;;;;;;;;;4920474;29;20944;-70
2023/06/21 03:53:06;;;;;;;10.17;8.57;;;;;;;;;;4920178;29;20420;-70
2023/06/21 03:55:32;;;;;;;5.30;5.00;;;;;;;;;;4920455;29;20429;-70
2023/06/21 03:57:58;;;;;;;9.87;8.80;;;;;;;;;;4920162;29;20429;-70
2023/06/21 04:00:24;;;;;;;14.20;9.80;;;;;;;;;;4920333;29;20547;-70
2023/06/21 04:02:50;;;;;;;10.60;8.97;;;;;;;;;;4920144;29;20425;-70
2023/06/21 04:05:16;;;;;;;28.87;9.07;;;;;;;;;;4920002;29;20451;-70
2023/06/21 04:07:42;;;;;;;15.33;9.80;;;;;;;;;;4920044;29;20507;-70
2023/06/21 04:10:13;;;;;;;10.03;8.60;;;;;;;;;;4920132;29;20476;-70
2023/06/21 04:12:39;;;;;;;19.57;10.10;;;;;;;;;;4920222;29;20455;-70
2023/06/21 04:15:05;;;;;;;16.23;9.13;;;;;;;;;;4920065;29;20824;-70
2023/06/21 04:17:31;;;;;;;10.57;9.20;;;;;;;;;;4919853;29;20929;-70
2023/06/21 04:19:57;;;;;;;13.17;9.00;;;;;;;;;;4934283;29;20805;-70
2023/06/21 04:22:25;;;;;;;19.30;8.83;;;;;;;;;;4919500;29;20428;-70
2023/06/21 04:24:51;;;;;;;9.33;8.70;;;;;;;;;;4919888;29;20432;-70
2023/06/21 04:27:17;;;;;;;11.13;9.37;;;;;;;;;;4919742;29;20820;-71
2023/06/21 04:29:43;;;;;;;13.80;9.70;;;;;;;;;;4919632;29;20459;-70
2023/06/21 04:32:09;;;;;;;10.67;9.63;;;;;;;;;;4919378;29;20531;-70
2023/06/21 04:34:36;;;;;;;15.57;9.90;;;;;;;;;;4918066;29;20429;-70
2023/06/21 04:37:08;;;;;;;16.63;9.30;;;;;;;;;;4919197;29;20497;-70
2023/06/21 04:39:37;;;;;;;13.93;8.30;;;;;;;;;;4919623;29;20443;-70
2023/06/21 04:42:03;;;;;;;11.67;10.47;;;;;;;;;;4919321;29;20560;-70
2023/06/21 04:44:29;;;;;;;10.63;9.73;;;;;;;;;;4919518;29;20520;-70
2023/06/21 04:46:55;;;;;;;10.00;9.20;;;;;;;;;;4919443;29;20432;-70
2023/06/21 04:49:25;;;;;;;13.13;9.93;;;;;;;;;;4919320;29;20436;-70
2023/06/21 04:51:51;;;;;;;16.00;10.60;;;;;;;;;;4919075;29;20494;-71
2023/06/21 04:54:18;;;;;;;12.20;9.70;;;;;;;;;;4919212;29;20865;-70
2023/06/21 04:56:44;;;;;;;14.27;10.07;;;;;;;;;;4919244;29;20424;-70
2023/06/21 04:59:10;;;;;;;18.30;9.67;;;;;;;;;;4918871;29;20516;-70
2023/06/21 05:01:35;;;;;;;11.00;9.73;;;;;;;;;;4919280;29;20421;-70
2023/06/21 05:04:01;;;;;;;13.57;10.20;;;;;;;;;;4919535;29;20927;-70
2023/06/21 05:06:27;;;;;;;16.90;9.90;;;;;;;;;;4918867;29;20425;-66
2023/06/21 05:11:57;;;;;;;13.27;9.67;;;;;;;;;;4918748;29;20475;-66
2023/06/21 05:14:23;;;;;;;12.33;9.10;;;;;;;;;;4919008;29;20424;-66
2023/06/21 05:16:49;;;;;;;11.80;10.57;;;;;;;;;;4918876;29;20439;-66
2023/06/21 05:19:16;;;;;;;11.43;9.60;;;;;;;;;;4918497;29;20432;-66
2023/06/21 05:21:44;;;;;;;14.80;10.20;;;;;;;;;;4918819;29;20435;-66
2023/06/21 05:24:10;;;;;;;11.70;10.00;;;;;;;;;;4918560;29;20788;-66
2023/06/21 05:26:36;;;;;;;11.23;10.07;;;;;;;;;;4918874;29;20516;-66
2023/06/21 05:29:01;;;;;;;10.53;9.07;;;;;;;;;;4918113;29;20892;-65
2023/06/21 05:31:28;;;;;;;9.80;8.07;;;;;;;;;;4918295;29;20708;-65
2023/06/21 05:33:54;;;;;;;13.10;9.60;;;;;;;;;;4918474;29;20417;-65
2023/06/21 05:36:20;;;;;;;9.33;8.63;;;;;;;;;;4918070;29;20436;-66
2023/06/21 05:38:46;;;;;;;9.07;8.20;;;;;;;;;;4917974;29;20432;-66
2023/06/21 05:41:12;;;;;;;11.07;7.70;;;;;;;;;;4917224;29;20421;-66
2023/06/21 05:43:38;;;;;;;10.27;7.97;;;;;;;;;;4917274;29;20422;-66
2023/06/21 05:46:04;;;;;;;9.03;8.10;;;;;;;;;;4917525;29;20533;-66
2023/06/21 05:48:30;;;;;;;9.13;8.33;;;;;;;;;;4917535;29;20514;-67
2023/06/21 05:50:57;;;;;;;12.40;7.20;;;;;;;;;;4917269;29;20476;-67
2023/06/21 05:53:23;;;;;;;8.83;8.03;;;;;;;;;;4918289;29;20413;-67
2023/06/21 05:55:49;;;;;;;8.73;7.83;;;;;;;;;;4918127;29;20513;-66
2023/06/21 05:58:15;;;;;;;12.23;7.20;;;;;;;;;;4917946;29;20435;-67
2023/06/21 06:00:40;;;;;;;12.20;8.23;;;;;;;;;;4918192;29;20976;-66
2023/06/21 06:03:08;;;;;;;7.27;6.70;;;;;;;;;;4917712;29;20821;-67
2023/06/21 06:05:34;;;;;;;9.10;7.17;;;;;;;;;;4918116;29;20558;-66
2023/06/21 06:08:00;;;;;;;11.53;7.23;;;;;;;;;;4917806;29;20433;-66
2023/06/21 06:10:26;;;;;;;7.83;7.13;;;;;;;;;;4917940;29;20486;-67
2023/06/21 06:12:52;;;;;;;6.50;6.00;;;;;;;;;;4918473;29;20520;-66
2023/06/21 06:15:18;;;;;;;7.87;6.50;;;;;;;;;;4917734;29;20839;-66
2023/06/21 06:17:46;;;;;;;7.93;7.33;;;;;;;;;;4917568;29;20416;-66
2023/06/21 06:20:12;;;;;;;7.87;7.30;;;;;;;;;;4917472;29;20893;-67
2023/06/21 06:22:39;;;;;;;8.97;8.37;;;;;;;;;;4917671;29;20779;-66
2023/06/21 06:25:05;;;;;;;13.43;9.33;;;;;;;;;;4916828;29;20434;-67
2023/06/21 06:27:32;;;;;;;10.63;8.40;;;;;;;;;;4916729;29;20890;-66
2023/06/21 06:29:58;;;;;;;9.53;8.67;;;;;;;;;;4917836;29;20458;-66
2023/06/21 06:32:26;;;;;;;10.40;8.43;;;;;;;;;;4917352;29;20503;-66
2023/06/21 06:34:52;;;;;;;12.83;9.80;;;;;;;;;;4916590;29;20425;-67
2023/06/21 06:37:18;;;;;;;22.20;8.70;;;;;;;;;;4916534;29;20432;-66
2023/06/21 06:39:44;;;;;;;12.80;9.10;;;;;;;;;;4916342;29;20433;-66
2023/06/21 06:42:10;;;;;;;12.17;10.93;;;;;;;;;;4916373;29;20471;-67
2023/06/21 06:44:37;;;;;;;11.27;10.13;;;;;;;;;;4916698;29;20425;-70
2023/06/21 06:47:03;;;;;;;11.40;10.20;;;;;;;;;;4916265;29;20464;-70
2023/06/21 06:49:29;;;;;;;15.67;11.90;;;;;;;;;;4916279;29;20440;-70
2023/06/21 06:51:55;;;;;;;21.63;10.00;;;;;;;;;;4915799;29;20480;-70
2023/06/21 06:54:21;;;;;;;11.47;10.60;;;;;;;;;;4916599;29;20439;-70
2023/06/21 06:56:47;;;;;;;18.20;11.23;;;;;;;;;;4915544;29;20935;-70
2023/06/21 06:59:14;;;;;;;21.33;11.37;;;;;;;;;;4916154;29;20559;-71
2023/06/21 07:01:40;;;;;;;14.10;9.60;;;;;;;;;;4915913;29;20461;-69
2023/06/21 07:04:06;;;;;;;11.13;9.77;;;;;;;;;;4930409;29;20487;-70
2023/06/21 07:06:32;;;;;;;12.50;9.27;;;;;;;;;;4917184;29;20764;-70
2023/06/21 07:09:00;;;;;;;12.70;10.20;;;;;;;;;;4916812;29;20901;-70
2023/06/21 07:11:26;;;;;;;16.90;10.17;;;;;;;;;;4916896;29;20476;-69
2023/06/21 07:13:52;;;;;;;10.97;10.00;;;;;;;;;;4916984;29;20508;-70
2023/06/21 07:16:18;;;;;;;10.60;9.53;;;;;;;;;;4931278;29;20468;-70
2023/06/21 07:18:44;;;;;;;20.93;13.40;;;;;;;;;;4931212;29;20929;-70
2023/06/21 07:21:10;;;;;;;11.33;9.80;;;;;;;;;;4916952;29;20520;-69
2023/06/21 07:23:36;;;;;;;18.23;12.10;;;;;;;;;;4931284;29;20456;-70
2023/06/21 07:26:02;;;;;;;11.97;10.60;;;;;;;;;;4916855;29;20436;-70
2023/06/21 07:28:28;;;;;;;12.30;10.27;;;;;;;;;;4916947;29;20425;-70
2023/06/21 07:30:55;;;;;;;22.20;11.60;;;;;;;;;;4916375;29;20547;-70
2023/06/21 07:33:21;;;;;;;22.57;11.00;;;;;;;;;;4931240;29;20427;-70
2023/06/21 07:35:48;;;;;;;9.13;8.23;;;;;;;;;;4916754;29;20496;-68
2023/06/21 07:38:13;;;;;;;7.43;6.83;;;;;;;;;;4916331;29;20772;-67
2023/06/21 07:40:39;;;;;;;6.77;6.17;;;;;;;;;;4915946;29;20417;-67
2023/06/21 07:43:05;;;;;;;15.63;10.87;;;;;;;;;;4916456;29;20761;-70
2023/06/21 07:45:32;;;;;;;12.60;9.93;;;;;;;;;;4916962;29;20517;-67
2023/06/21 07:47:57;;;;;;;14.30;11.50;;;;;;;;;;4916855;29;20484;-67
2023/06/21 07:50:26;;;;;;;12.70;11.70;;;;;;;;;;4915974;29;20472;-66
2023/06/21 07:52:52;;;;;;;16.17;12.73;;;;;;;;;;4916573;29;20776;-68
2023/06/21 07:55:18;;;;;;;13.53;11.73;;;;;;;;;;4916542;29;20413;-68
2023/06/21 07:57:44;;;;;;;13.97;11.13;;;;;;;;;;4916520;29;20769;-68
2023/06/21 08:00:11;;;;;;;12.97;10.93;;;;;;;;;;4916769;29;20456;-65
2023/06/21 08:02:37;;;;;;;11.63;10.53;;;;;;;;;;4916994;29;20480;-66
2023/06/21 08:05:04;;;;;;;13.10;11.30;;;;;;;;;;4916673;29;20464;-66
2023/06/21 08:07:30;;;;;;;16.10;9.60;;;;;;;;;;4916556;29;20531;-68
2023/06/21 08:09:56;;;;;;;10.23;9.23;;;;;;;;;;4919349;29;20924;-68
2023/06/21 08:12:22;;;;;;;6.87;6.33;;;;;;;;;;4919756;29;20440;-69
2023/06/21 08:14:48;;;;;;;8.50;7.90;;;;;;;;;;4919717;29;20432;-66
2023/06/21 08:17:14;;;;;;;8.67;7.90;;;;;;;;;;4919784;29;20417;-68
2023/06/21 08:19:40;;;;;;;9.00;8.10;;;;;;;;;;4919827;29;20460;-66
2023/06/21 08:22:06;;;;;;;8.90;7.60;;;;;;;;;;4919926;29;20516;-68
2023/06/21 08:24:34;;;;;;;8.13;7.33;;;;;;;;;;4919939;29;20177;-70
2023/06/21 08:27:00;;;;;;;6.93;6.07;;;;;;;;;;4919587;29;20420;-69
2023/06/21 08:29:26;;;;;;;6.40;6.00;;;;;;;;;;4919845;29;20484;-70
2023/06/21 08:31:52;;;;;;;5.73;5.40;;;;;;;;;;4919412;29;20555;-70
2023/06/21 08:34:18;;;;;;;8.20;7.40;;;;;;;;;;4919852;29;20421;-70
2023/06/21 08:36:44;;;;;;;7.90;7.20;;;;;;;;;;4919423;29;20429;-70
2023/06/21 08:39:10;;;;;;;9.30;7.20;;;;;;;;;;4919484;29;20417;-70
2023/06/21 08:41:37;;;;;;;8.83;8.13;;;;;;;;;;4919459;29;20479;-67
2023/06/21 08:44:03;;;;;;;9.90;9.03;;;;;;;;;;4919373;29;20520;-70
2023/06/21 08:46:29;;;;;;;12.60;8.47;;;;;;;;;;4919512;29;20500;-70
2023/06/21 08:48:57;;;;;;;9.13;8.23;;;;;;;;;;4919766;29;20432;-70
2023/06/21 08:51:24;;;;;;;13.07;7.20;;;;;;;;;;4919608;29;20559;-70
2023/06/21 08:53:51;;;;;;;9.13;8.50;;;;;;;;;;4919448;29;20416;-70
2023/06/21 08:56:21;;;;;;;12.97;9.10;;;;;;;;;;4919290;29;20425;-70
2023/06/21 08:58:50;;;;;;;11.70;9.20;;;;;;;;;;4919466;29;20447;-71
2023/06/21 09:01:19;;;;;;;8.20;7.70;;;;;;;;;;4918992;29;20936;-70
2023/06/21 09:03:48;;;;;;;13.57;7.17;;;;;;;;;;4919078;29;20463;-70
2023/06/21 09:06:15;;;;;;;6.10;5.77;;;;;;;;;;4919070;29;20795;-69
2023/06/21 09:08:42;;;;;;;5.90;4.60;;;;;;;;;;4919218;29;20444;-70
2023/06/21 09:11:08;;;;;;;5.63;5.20;;;;;;;;;;4919178;29;20480;-71
2023/06/21 09:13:34;;;;;;;5.43;5.10;;;;;;;;;;4918692;29;20919;-70
2023/06/21 09:16:03;;;;;;;7.13;5.07;;;;;;;;;;4919010;29;20924;-70
2023/06/21 09:18:35;;;;;;;4.90;4.30;;;;;;;;;;4919071;29;20484;-70
2023/06/21 09:21:02;;;;;;;6.50;4.00;;;;;;;;;;4918138;29;20428;-70
2023/06/21 09:23:28;;;;;;;8.27;4.87;;;;;;;;;;4918408;29;20519;-70
2023/06/21 09:25:54;;;;;;;3.33;3.10;;;;;;;;;;4918306;29;20428;-70
2023/06/21 09:28:20;;;;;;;4.20;3.00;;;;;;;;;;4919180;29;20436;-70
2023/06/21 09:30:46;;;;;;;3.10;2.90;;;;;;;;;;4918275;29;20491;-70
2023/06/21 09:33:12;;;;;;;9.40;2.27;;;;;;;;;;4918460;29;20958;-70
2023/06/21 09:35:38;;;;;;;2.13;2.00;;;;;;;;;;4918733;29;20421;-70
2023/06/21 09:38:23;;;;;;;3.53;2.30;;;;;;;;;;4918322;29;20504;-70
2023/06/21 09:40:49;;;;;;;3.80;2.40;;;;;;;;;;4933222;29;20452;-71
2023/06/21 09:43:15;;;;;;;2.10;1.90;;;;;;;;;;4918318;29;20428;-71
2023/06/21 09:45:41;;;;;;;6.23;2.00;;;;;;;;;;4918904;29;20425;-70
2023/06/21 09:48:08;;;;;;;2.73;2.50;;;;;;;;;;4918134;29;20417;-70
2023/06/21 09:50:37;;;;;;;1.97;1.97;;;;;;;;;;4918393;29;20619;-70
2023/06/21 09:53:03;;;;;;;2.57;2.47;;;;;;;;;;4918021;29;20453;-70
2023/06/21 09:55:29;;;;;;;2.03;1.93;;;;;;;;;;4918018;29;20512;-70
2023/06/21 09:57:57;;;;;;;3.13;1.50;;;;;;;;;;4932625;29;20807;-71
2023/06/21 10:00:24;;;;;;;2.20;2.10;;;;;;;;;;4917701;29;20767;-70
2023/06/21 10:02:52;;;;;;;2.33;2.17;;;;;;;;;;4917793;29;20427;-70
2023/06/21 10:05:19;;;;;;;1.40;1.30;;;;;;;;;;4917582;29;20898;-70
2023/06/21 10:07:46;;;;;;;3.43;2.10;;;;;;;;;;4918026;29;20510;-69
2023/06/21 10:10:12;;;;;;;3.27;3.07;;;;;;;;;;4917750;29;20425;-70
2023/06/21 10:12:48;;;;;;;4.63;4.43;;;;;;;;;;4917908;29;20794;-71
2023/06/21 10:15:14;;;;;;;2.67;2.57;;;;;;;;;;4917910;29;20469;-71
2023/06/21 10:17:41;;;;;;;1.70;1.70;;;;;;;;;;4917490;29;20507;-71
2023/06/21 10:20:07;;;;;;;2.93;1.80;;;;;;;;;;4917826;29;20459;-71
2023/06/21 10:22:36;;;;;;;3.20;2.90;;;;;;;;;;4917459;29;20515;-71
2023/06/21 10:25:02;;;;;;;2.43;1.43;;;;;;;;;;4917263;29;20932;-70
2023/06/21 10:27:30;;;;;;;1.70;1.60;;;;;;;;;;4917807;29;20432;-70
2023/06/21 10:29:58;;;;;;;2.80;2.50;;;;;;;;;;4917685;29;20417;-71
2023/06/21 10:32:24;;;;;;;2.27;1.70;;;;;;;;;;4916229;29;20496;-71
2023/06/21 10:35:11;;;;;;;3.43;2.03;;;;;;;;;;4917537;29;20447;-71
2023/06/21 10:37:48;;;;;;;3.73;1.70;;;;;;;;;;4917748;29;20420;-71
2023/06/21 10:40:14;;;;;;;2.07;2.03;;;;;;;;;;4917474;29;20495;-71
2023/06/21 10:42:41;;;;;;;2.00;1.90;;;;;;;;;;4917361;29;20441;-71
2023/06/21 10:45:08;;;;;;;3.23;1.77;;;;;;;;;;4931792;29;20797;-70
2023/06/21 10:47:35;;;;;;;2.97;1.37;;;;;;;;;;4917484;29;20464;-71
2023/06/21 10:50:02;;;;;;;4.33;2.40;;;;;;;;;;4917089;29;20447;-67
2023/06/21 10:52:29;;;;;;;2.07;1.90;;;;;;;;;;4917321;29;20476;-71
2023/06/21 10:54:58;;;;;;;2.90;1.90;;;;;;;;;;4917358;29;20852;-70
2023/06/21 10:57:31;;;;;;;2.60;2.03;;;;;;;;;;4917211;29;20504;-70
2023/06/21 10:59:58;;;;;;;2.50;1.83;;;;;;;;;;4916985;29;20500;-70
2023/06/21 11:02:24;;;;;;;1.50;1.50;;;;;;;;;;4916955;29;20431;-70
2023/06/21 11:05:09;;;;;;;1.53;1.53;;;;;;;;;;4917497;29;20492;-71
2023/06/21 11:07:35;;;;;;;1.50;1.50;;;;;;;;;;4916992;29;20841;-71
2023/06/21 11:10:07;;;;;;;1.90;1.80;;;;;;;;;;4917168;29;20972;-70
2023/06/21 11:12:36;;;;;;;1.60;1.60;;;;;;;;;;4917065;29;20516;-71
2023/06/21 11:15:05;;;;;;;3.13;1.60;;;;;;;;;;4916824;29;21007;-71
2023/06/21 11:17:34;;;;;;;2.93;2.63;;;;;;;;;;4917069;29;21078;-70
2023/06/21 11:20:18;;;;;;;2.90;2.67;;;;;;;;;;4916883;29;20846;-71
2023/06/21 11:22:55;;;;;;;1.50;1.40;;;;;;;;;;4917511;29;20401;-71
2023/06/21 11:25:21;;;;;;;1.67;1.53;;;;;;;;;;4917208;29;20413;-71
2023/06/21 11:28:08;;;;;;;1.73;1.70;;;;;;;;;;4916786;29;20520;-71
2023/06/21 11:30:35;;;;;;;2.13;1.63;;;;;;;;;;4916512;29;20484;-71
2023/06/21 11:33:01;;;;;;;2.50;2.30;;;;;;;;;;4916969;29;20436;-70
2023/06/21 11:35:37;;;;;;;2.13;2.03;;;;;;;;;;4916708;29;20417;-70
2023/06/21 11:38:04;;;;;;;2.03;1.93;;;;;;;;;;4916931;29;20181;-72
2023/06/21 11:40:31;;;;;;;1.73;1.63;;;;;;;;;;4916674;29;20452;-71
2023/06/21 11:42:57;;;;;;;1.60;1.50;;;;;;;;;;4916994;29;20435;-71
2023/06/21 11:45:32;;;;;;;2.53;1.87;;;;;;;;;;4920349;29;20413;-71
2023/06/21 11:47:59;;;;;;;1.47;1.30;;;;;;;;;;4920227;29;20445;-71
2023/06/21 11:50:31;;;;;;;1.63;1.53;;;;;;;;;;4920359;29;20487;-71
2023/06/21 11:52:57;;;;;;;2.20;1.47;;;;;;;;;;4920688;29;20423;-71
2023/06/21 11:55:23;;;;;;;4.93;1.70;;;;;;;;;;4920339;29;20808;-71
2023/06/21 11:57:49;;;;;;;2.07;1.90;;;;;;;;;;4920058;29;20432;-71
2023/06/21 12:00:15;;;;;;;1.53;1.50;;;;;;;;;;4920034;29;20425;-71
2023/06/21 12:02:42;;;;;;;8.63;2.33;;;;;;;;;;4919109;29;20432;-71
2023/06/21 12:05:08;;;;;;;2.63;2.53;;;;;;;;;;4918985;29;20425;-71
2023/06/21 12:07:34;;;;;;;1.70;1.50;;;;;;;;;;4933291;29;20425;-71
2023/06/21 12:10:01;;;;;;;1.77;1.67;;;;;;;;;;4918657;29;20413;-71
2023/06/21 12:12:27;;;;;;;1.30;1.30;;;;;;;;;;4919385;29;20472;-71
2023/06/21 12:14:56;;;;;;;2.00;2.00;;;;;;;;;;4918513;29;20423;-71
2023/06/21 12:17:22;;;;;;;5.30;1.40;;;;;;;;;;4918424;29;20931;-70
2023/06/21 12:19:48;;;;;;;1.93;1.93;;;;;;;;;;4918963;29;20425;-71
2023/06/21 12:22:14;;;;;;;1.50;1.40;;;;;;;;;;4919787;29;21049;-71
2023/06/21 12:24:40;;;;;;;3.40;1.73;;;;;;;;;;4920379;29;20495;-70
2023/06/21 12:27:06;;;;;;;1.70;1.70;;;;;;;;;;4919681;29;20913;-70
2023/06/21 12:29:32;;;;;;;2.73;1.87;;;;;;;;;;4919646;29;20424;-70
2023/06/21 12:31:58;;;;;;;2.13;1.93;;;;;;;;;;4919218;29;20491;-70
2023/06/21 12:34:25;;;;;;;2.00;2.00;;;;;;;;;;4918707;29;20413;-71
2023/06/21 12:36:54;;;;;;;1.40;1.30;;;;;;;;;;4918148;29;20429;-70
2023/06/21 12:39:21;;;;;;;1.50;1.50;;;;;;;;;;4918996;29;20480;-70
2023/06/21 12:41:47;;;;;;;1.77;1.70;;;;;;;;;;4919573;29;20491;-70
2023/06/21 12:44:21;;;;;;;2.30;1.57;;;;;;;;;;4919637;29;20468;-71
2023/06/21 12:46:47;;;;;;;2.00;1.90;;;;;;;;;;4919452;29;20444;-70
2023/06/21 12:49:14;;;;;;;1.80;1.70;;;;;;;;;;4933886;29;20455;-70
2023/06/21 12:51:40;;;;;;;1.90;1.80;;;;;;;;;;4920000;29;20531;-71
2023/06/21 12:54:08;;;;;;;3.23;2.20;;;;;;;;;;4919188;29;20425;-71
2023/06/21 12:56:35;;;;;;;1.67;1.57;;;;;;;;;;4918669;29;20453;-70
2023/06/21 12:59:01;;;;;;;2.00;1.90;;;;;;;;;;4919493;29;20424;-70
2023/06/21 13:01:28;;;;;;;1.70;1.37;;;;;;;;;;4919093;29;20409;-70
2023/06/21 13:03:55;;;;;;;1.77;1.77;;;;;;;;;;4919173;29;20424;-70
2023/06/21 13:06:21;;;;;;;2.40;1.73;;;;;;;;;;4918919;29;20417;-70
2023/06/21 13:08:47;;;;;;;1.97;1.87;;;;;;;;;;4919337;29;20429;-70
2023/06/21 13:11:13;;;;;;;2.13;2.03;;;;;;;;;;4919117;29;20488;-70
2023/06/21 13:13:41;;;;;;;4.57;2.10;;;;;;;;;;4919424;29;20428;-70
2023/06/21 13:16:09;;;;;;;3.33;2.13;;;;;;;;;;4918872;29;20421;-71
2023/06/21 13:18:35;;;;;;;2.33;2.23;;;;;;;;;;4917966;29;20428;-71
2023/06/21 13:21:01;;;;;;;2.10;2.00;;;;;;;;;;4918585;29;20556;-71
2023/06/21 13:23:27;;;;;;;1.60;1.50;;;;;;;;;;4918719;29;20412;-70
2023/06/21 13:25:58;;;;;;;2.73;1.60;;;;;;;;;;4918900;29;20476;-71
2023/06/21 13:28:24;;;;;;;1.70;1.70;;;;;;;;;;4918882;29;20492;-70
2023/06/21 13:30:50;;;;;;;3.57;1.47;;;;;;;;;;4918359;29;20985;-70
2023/06/21 13:33:17;;;;;;;1.60;1.60;;;;;;;;;;4918847;29;20760;-70
2023/06/21 13:35:43;;;;;;;1.83;1.83;;;;;;;;;;4918723;29;20467;-70
2023/06/21 13:38:09;;;;;;;3.70;2.33;;;;;;;;;;4918690;29;20520;-70
2023/06/21 13:40:35;;;;;;;2.07;2.07;;;;;;;;;;4918679;29;20420;-71
2023/06/21 13:43:01;;;;;;;2.27;2.07;;;;;;;;;;4918371;29;20417;-70
2023/06/21 13:45:27;;;;;;;2.00;2.00;;;;;;;;;;4918289;29;20420;-70
2023/06/21 13:47:53;;;;;;;1.93;1.93;;;;;;;;;;4918456;29;20479;-70
2023/06/21 13:50:19;;;;;;;2.07;1.97;;;;;;;;;;4918057;29;20420;-70
2023/06/21 13:52:45;;;;;;;1.93;1.83;;;;;;;;;;4918736;29;20417;-70
2023/06/21 13:55:14;;;;;;;2.03;1.83;;;;;;;;;;4918281;29;20920;-70
2023/06/21 13:57:40;;;;;;;1.87;1.87;;;;;;;;;;4918329;29;20448;-70
2023/06/21 14:00:16;;;;;;;9.50;2.43;;;;;;;;;;4918822;29;20420;-70
2023/06/21 14:02:42;;;;;;;2.47;2.27;;;;;;;;;;4918031;29;20393;-70
2023/06/21 14:05:09;;;;;;;2.30;2.30;;;;;;;;;;4918163;29;20431;-70
2023/06/21 14:07:35;;;;;;;1.87;1.87;;;;;;;;;;4918031;29;20416;-70
2023/06/21 14:10:01;;;;;;;2.03;1.93;;;;;;;;;;4918110;29;20421;-71
2023/06/21 14:12:27;;;;;;;5.33;2.10;;;;;;;;;;4918766;29;20476;-70
2023/06/21 14:14:53;;;;;;;20.47;18.77;;;;;;;;;;4918007;29;20503;-71
2023/06/21 14:17:19;;;;;;;2.67;2.57;;;;;;;;;;4917794;29;20437;-70
2023/06/21 14:19:45;;;;;;;2.10;2.00;;;;;;;;;;4917660;29;20416;-71
2023/06/21 14:22:12;;;;;;;1.63;1.63;;;;;;;;;;4917952;29;20772;-71
2023/06/21 14:24:38;;;;;;;4.40;4.10;;;;;;;;;;4917521;29;20924;-70
2023/06/21 14:27:05;;;;;;;2.50;2.50;;;;;;;;;;4917637;29;20516;-70
2023/06/21 14:29:30;;;;;;;2.00;1.90;;;;;;;;;;4917556;29;20417;-70
2023/06/21 14:31:57;;;;;;;1.83;1.73;;;;;;;;;;4917245;29;20492;-70
2023/06/21 14:34:23;;;;;;;3.47;2.03;;;;;;;;;;4917319;29;21026;-70
2023/06/21 14:36:49;;;;;;;2.63;1.80;;;;;;;;;;4917391;29;20433;-71
2023/06/21 14:39:15;;;;;;;2.00;1.90;;;;;;;;;;4917326;29;20421;-70